aviador You're here:

WBGS Decoded Metar

SIBU in MALAYSIA
Report Time2017-07-24 16:00:00
UTC Time2017-07-24 16:45:38
Flight Rules vfr VFR
WindVRB at 02 kt
Visibility9999 m
Phenomena:N/A
Clouds:Scattered 018 Hf
Broken 150 Hf
Expected CloudBase > 1,200 ft AGL from Temp-Dew spread
Ceiling15,000 ft
Temp26°C (ISA +11)
Dew Point23°C (84% RH)
QNH1010 hPa
Density Alt1,772 ft
Elevation26 ft
Report Wrong Elevation
Raw Report
METAR WBGS 241600Z VRB02KT 9999 SCT018 BKN150 26/23 Q1010=

Extra information for WBGS:More info

Metar Taf Metar & Taf Last 4 Metars F.Rules Stats Wind Profile Meteogram Temp Stats Airport Information Weather charts Add Link Nearby VenuesMetar ALERT Operation Metar Decoded Social comments